Flight Track Log - Related Links

Times and Time Zones

All times are in EDT time to prevent confusion due to time zone crossing. See the N18TF flight status page for this flight to view local times or setup timezone preferences in your user account.

Time Position Orientation Groundspeed Altitude Reporting Facility
EDT Latitude Longitude Course Direction KTS MPH feet Rate Location/Type
Thu 10:38:00 AM 45.1017 -83.5717 225° Southwest 226 260 2,300  Level Minneapolis Center
Thu 10:40:27 AM 45.0083 -83.7028 212° Southwest 220 253 22,000 5,738 Climbing Minneapolis Center
Thu 10:41:26 AM 44.9617 -83.7433 212° Southwest 227 261 22,000  Level Minneapolis Center
Thu 10:42:27 AM 44.9072 -83.7908 209° Southwest 227 261 22,000 -645 Level Minneapolis Center
Thu 10:43:27 AM 44.8506 -83.8358 213° Southwest 227 261 20,700  Descending Minneapolis Center
Thu 10:44:27 AM 44.7964 -83.8861 212° Southwest 227 261 22,000 650 Climbing Minneapolis Center
Thu 10:45:27 AM 44.7264 -83.9478 213° Southwest 261 300 22,000  Level Minneapolis Center
Thu 10:46:27 AM 44.6603 -84.0083 210° Southwest 289 333 22,000  Level Minneapolis Center
Thu 10:47:27 AM 44.5803 -84.0744 214° Southwest 322 371 22,000  Level Minneapolis Center
Thu 10:48:27 AM 44.5047 -84.1453 211° Southwest 330 380 22,000  Level Minneapolis Center
Thu 10:49:27 AM 44.4264 -84.2103 213° Southwest 330 380 22,000  Level Minneapolis Center
Thu 10:50:27 AM 44.3525 -84.2775 212° Southwest 330 380 22,000  Level Minneapolis Center
Thu 10:51:27 AM 44.2783 -84.3417 212° Southwest 319 367 22,000  Level Minneapolis Center
Thu 10:52:27 AM 44.2042 -84.4056 212° Southwest 319 367 22,000  Level Minneapolis Center
Thu 10:54:29 AM 44.0517 -84.5369 212° Southwest 307 353 22,000 -33 Level Cleveland Center
Thu 10:55:29 AM 43.9764 -84.6014 212° Southwest 314 361 21,900 -1,342 Descending Cleveland Center
Thu 10:57:10 AM 43.8417 -84.7186 214° Southwest 325 374 18,400 -1,826 Descending Chicago Center
Thu 10:58:10 AM 43.7756 -84.7811 211° Southwest 330 380 17,000 -1,650 Descending Chicago Center
Thu 10:59:10 AM 43.6986 -84.8444 213° Southwest 330 380 15,100 -1,600 Descending Chicago Center
Thu 11:00:10 AM 43.6261 -84.9100 209° Southwest 324 373 13,800 -1,300 Descending Chicago Center
Thu 11:01:10 AM 43.5492 -84.9700 212° Southwest 324 373 12,500 -1,200 Descending Chicago Center
Thu 11:02:10 AM 43.4706 -85.0386 210° Southwest 319 367 11,400 -750 Descending Chicago Center
Thu 11:03:10 AM 43.3997 -85.0950 211° Southwest 314 361 11,000 -350 Descending Chicago Center
Thu 11:04:10 AM 43.3331 -85.1511 211° Southwest 303 349 10,700 -450 Descending Chicago Center
Thu 11:05:10 AM 43.2661 -85.2069 218° Southwest 290 334 10,100 -850 Descending Chicago Center
Thu 11:06:10 AM 43.2058 -85.2708 218° Southwest 285 328 9,000 -1,050 Descending Chicago Center
Thu 11:07:10 AM 43.1436 -85.3375 218° Southwest 280 322 8,000 -1,200 Descending Chicago Center
Thu 11:08:10 AM 43.0892 -85.3950 218° Southwest 285 328 6,600 -1,950 Descending Chicago Center
Thu 11:09:10 AM 43.0289 -85.4586 221° Southwest 285 328 4,100 -2,050 Descending Chicago Center
Thu 11:10:10 AM 42.9789 -85.5183 179° South 272 313 2,500 -1,600 Descending Chicago Center
Thu 11:17:32 AM 42.8667 -85.5167 342° North  Level FlightAware Approximate
Thu 11:18:32 AM 42.9375 -85.5474 162° South  Level Estimated
Thu 11:19:32 AM 42.8667 -85.5167 162° South  Level FlightAware Approximate

Login

Don't have an account? Register now (free) for customized features, flight alerts, and more!